Time;durP1;ratioP1;P1;durP2;ratioP2;P2;SDS_P1;SDS_P2;PMS_P1;PMS_P2;Temp;Humidity;BMP_temperature;BMP_pressure;BME280_temperature;BME280_humidity;BME280_pressure;Samples;Min_cycle;Max_cycle;Signal;HPM_P1;HPM_P2
2022/06/29 00:00:24;;;;;;;2.97;2.77;;;23.00;77.90;23.70;96387.00;;;;5016322;28;20234;-81
2022/06/29 00:02:51;;;;;;;3.00;2.80;;;23.00;77.80;23.70;96389.00;;;;5010425;28;20249;-81
2022/06/29 00:05:23;;;;;;;2.57;2.37;;;23.00;77.70;23.70;96388.00;;;;5024903;28;20253;-81
2022/06/29 00:07:51;;;;;;;2.97;2.27;;;23.00;77.60;23.70;96382.00;;;;5015884;28;20207;-82
2022/06/29 00:10:20;;;;;;;2.70;2.47;;;23.00;77.50;23.60;96378.00;;;;5003710;28;20207;-81
2022/06/29 00:12:48;;;;;;;2.97;2.40;;;23.00;77.50;23.60;96375.00;;;;5019223;28;20203;-81
2022/06/29 00:15:18;;;;;;;3.63;2.47;;;23.00;77.60;23.60;96377.00;;;;5028730;28;20253;-81
2022/06/29 00:17:46;;;;;;;2.83;2.63;;;22.90;77.60;23.60;96380.00;;;;5016521;28;20225;-82
2022/06/29 00:20:14;;;;;;;2.97;2.70;;;22.90;77.60;23.50;96367.00;;;;5009391;28;20206;-83
2022/06/29 00:22:43;;;;;;;2.70;2.50;;;22.90;77.70;23.50;96358.00;;;;5000841;28;20676;-82
2022/06/29 00:25:12;;;;;;;2.80;2.60;;;22.80;77.60;23.40;96353.00;;;;5022638;28;20245;-82
2022/06/29 00:27:41;;;;;;;2.83;2.63;;;22.80;77.70;23.40;96352.00;;;;5026044;28;20218;-82
2022/06/29 00:30:11;;;;;;;2.87;2.67;;;22.80;77.80;23.40;96347.00;;;;5025509;28;20615;-84
2022/06/29 00:32:38;;;;;;;2.97;2.77;;;22.80;77.80;23.40;96347.00;;;;5013303;28;20239;-82
2022/06/29 00:35:07;;;;;;;2.80;2.60;;;22.70;77.80;23.40;96344.00;;;;5021406;28;20228;-82
2022/06/29 00:37:34;;;;;;;2.73;2.50;;;22.70;77.90;23.30;96344.00;;;;5016045;28;20238;-81
2022/06/29 00:40:02;;;;;;;2.90;2.70;;;22.70;77.80;23.30;96338.00;;;;5014510;28;20683;-82
2022/06/29 00:42:31;;;;;;;3.07;2.80;;;22.70;77.80;23.30;96330.00;;;;5013685;28;20649;-82
2022/06/29 00:45:00;;;;;;;2.97;2.77;;;22.70;77.70;23.30;96327.00;;;;5014455;28;20587;-82
2022/06/29 00:47:28;;;;;;;2.53;2.40;;;22.60;77.50;23.30;96331.00;;;;5027842;28;20253;-83
2022/06/29 00:49:55;;;;;;;2.50;2.40;;;22.60;77.40;23.20;96318.00;;;;5014811;28;20277;-82
2022/06/29 00:52:25;;;;;;;3.00;2.80;;;22.60;77.30;23.20;96306.00;;;;5009669;28;20290;-81
2022/06/29 00:54:57;;;;;;;2.50;2.40;;;22.60;77.50;23.20;96311.00;;;;5009230;28;20660;-81
2022/06/29 00:57:29;;;;;;;3.10;2.80;;;22.50;77.50;23.10;96314.00;;;;5017026;28;20240;-80
2022/06/29 01:00:00;;;;;;;3.27;2.30;;;22.50;77.30;23.10;96318.00;;;;5014588;28;20555;-81
2022/06/29 01:02:32;;;;;;;2.80;2.60;;;22.50;77.20;23.10;96308.00;;;;4998297;28;20205;-81
2022/06/29 01:05:00;;;;;;;2.77;2.60;;;22.50;77.30;23.00;96311.00;;;;5015067;28;20252;-81
2022/06/29 01:07:31;;;;;;;3.63;2.53;;;22.40;77.20;23.00;96310.00;;;;5014662;28;20977;-81
2022/06/29 01:10:00;;;;;;;2.90;2.70;;;22.40;77.10;23.00;96302.00;;;;5018179;28;20722;-82
2022/06/29 01:12:28;;;;;;;3.30;3.10;;;22.30;77.00;22.90;96295.00;;;;5013825;28;20304;-81
2022/06/29 01:14:56;;;;;;;3.23;2.93;;;22.30;77.20;22.90;96301.00;;;;5020314;28;20248;-80
2022/06/29 01:17:25;;;;;;;3.00;2.70;;;22.30;77.20;22.90;96305.00;;;;5021118;28;20226;-80
2022/06/29 01:19:53;;;;;;;3.57;3.03;;;22.20;77.10;22.80;96308.00;;;;5001608;28;20226;-81
2022/06/29 01:22:26;;;;;;;3.07;2.87;;;22.20;77.10;22.80;96311.00;;;;4999028;28;20238;-82
2022/06/29 01:24:53;;;;;;;2.80;2.60;;;22.20;77.40;22.70;96323.00;;;;5007372;28;20323;-80
2022/06/29 01:27:23;;;;;;;2.93;2.73;;;22.10;77.40;22.70;96314.00;;;;5017485;28;20735;-83
2022/06/29 01:29:50;;;;;;;2.90;2.70;;;22.10;77.50;22.70;96305.00;;;;5004293;28;20252;-81
2022/06/29 01:32:17;;;;;;;2.93;2.63;;;22.10;77.70;22.70;96300.00;;;;5029564;28;20234;-80
2022/06/29 01:34:45;;;;;;;2.90;2.70;;;22.10;78.00;22.70;96297.00;;;;5023812;28;20230;-81
2022/06/29 01:37:13;;;;;;;3.60;3.10;;;22.10;78.20;22.70;96297.00;;;;5012186;28;20238;-81
2022/06/29 01:39:42;;;;;;;3.27;2.50;;;22.10;78.40;22.70;96294.00;;;;4999648;28;20190;-80
2022/06/29 01:42:11;;;;;;;3.50;3.00;;;22.10;78.70;22.70;96299.00;;;;5011588;28;20233;-81
2022/06/29 01:44:38;;;;;;;3.10;2.80;;;22.00;78.70;22.70;96305.00;;;;5009785;28;20266;-80
2022/06/29 01:47:06;;;;;;;3.50;3.10;;;22.00;78.90;22.80;96322.00;;;;5017249;28;20217;-83
2022/06/29 01:49:34;;;;;;;3.30;3.00;;;22.00;79.10;22.80;96321.00;;;;5021534;28;20301;-80
2022/06/29 01:52:01;;;;;;;3.70;3.40;;;22.10;79.40;22.80;96318.00;;;;5019335;28;20719;-82
2022/06/29 01:54:28;;;;;;;3.13;2.87;;;22.10;79.60;22.80;96318.00;;;;5020921;28;20252;-80
2022/06/29 01:56:56;;;;;;;4.07;3.80;;;22.10;79.80;22.80;96310.00;;;;5016711;28;20672;-81
2022/06/29 01:59:24;;;;;;;3.30;2.93;;;22.10;79.90;22.90;96297.00;;;;5030670;28;20248;-81
2022/06/29 02:01:51;;;;;;;5.57;3.03;;;22.10;80.00;22.90;96299.00;;;;5011721;28;20229;-81
2022/06/29 02:04:18;;;;;;;3.93;3.60;;;22.10;80.00;22.90;96308.00;;;;4997426;28;20245;-81
2022/06/29 02:06:45;;;;;;;4.80;4.00;;;22.20;80.10;22.90;96302.00;;;;5012966;28;20213;-81
2022/06/29 02:09:13;;;;;;;5.83;3.47;;;22.20;80.20;23.00;96297.00;;;;5026143;28;20581;-81
2022/06/29 02:11:40;;;;;;;3.57;3.30;;;22.20;80.30;23.00;96287.00;;;;4999896;28;20260;-80
2022/06/29 02:14:09;;;;;;;4.10;3.47;;;22.30;80.30;23.10;96285.00;;;;5013287;28;20241;-83
2022/06/29 02:16:36;;;;;;;3.10;2.90;;;22.30;80.40;23.10;96275.00;;;;5021540;28;20218;-81
2022/06/29 02:19:04;;;;;;;3.37;3.10;;;22.30;80.40;23.10;96268.00;;;;5026793;28;20259;-81
2022/06/29 02:21:31;;;;;;;3.23;2.93;;;22.30;80.20;23.10;96273.00;;;;5013338;28;20197;-81
2022/06/29 02:23:58;;;;;;;3.60;3.40;;;22.40;80.30;23.10;96263.00;;;;5011874;28;20222;-82
2022/06/29 02:26:25;;;;;;;3.50;3.20;;;22.40;80.30;23.10;96260.00;;;;5023171;28;20246;-81
2022/06/29 02:28:53;;;;;;;3.90;3.60;;;22.40;80.20;23.10;96265.00;;;;5024529;28;20316;-82
2022/06/29 02:36:50;;;;;;;4.07;3.63;;;22.50;80.30;23.20;96268.00;;;;5007923;28;20217;-82
2022/06/29 02:39:17;;;;;;;4.03;3.77;;;22.50;80.30;23.20;96288.00;;;;5009303;28;20286;-81
2022/06/29 02:41:44;;;;;;;4.07;3.77;;;22.50;80.40;23.30;96293.00;;;;5011797;28;20276;-84
2022/06/29 02:44:12;;;;;;;4.53;4.23;;;22.50;80.50;23.30;96305.00;;;;5018511;28;20238;-81
2022/06/29 02:46:41;;;;;;;4.33;3.93;;;22.60;80.50;23.30;96324.00;;;;5014038;28;20245;-82
2022/06/29 02:49:08;;;;;;;5.70;4.33;;;22.60;80.50;23.30;96334.00;;;;5007054;28;20258;-81
2022/06/29 02:51:35;;;;;;;4.93;4.53;;;22.60;80.50;23.30;96323.00;;;;5016917;28;20249;-81
2022/06/29 02:54:02;;;;;;;4.73;4.30;;;22.60;80.30;23.40;96309.00;;;;5020384;28;20221;-82
2022/06/29 02:56:30;;;;;;;5.13;4.80;;;22.60;80.40;23.40;96296.00;;;;5014446;28;20710;-82
2022/06/29 02:58:57;;;;;;;5.07;4.57;;;22.60;80.40;23.40;96288.00;;;;5011215;28;20201;-81
2022/06/29 03:01:25;;;;;;;5.13;4.73;;;22.70;80.40;23.40;96282.00;;;;5014480;28;20650;-84
2022/06/29 03:03:53;;;;;;;4.87;4.27;;;22.70;80.30;23.40;96288.00;;;;5017013;28;20222;-82
2022/06/29 03:06:20;;;;;;;4.90;4.50;;;22.70;80.40;23.40;96283.00;;;;5024192;28;20639;-82
2022/06/29 03:08:47;;;;;;;5.17;4.73;;;22.70;80.40;23.50;96281.00;;;;5016920;28;20217;-82
2022/06/29 03:11:15;;;;;;;4.73;4.33;;;22.70;80.40;23.50;96276.00;;;;5012186;28;20576;-81
2022/06/29 03:13:42;;;;;;;4.60;4.20;;;22.80;80.50;23.50;96286.00;;;;5016203;28;20229;-81
2022/06/29 03:16:09;;;;;;;4.87;4.37;;;22.80;80.60;23.50;96284.00;;;;5023029;28;20307;-86
2022/06/29 03:18:36;;;;;;;4.27;3.97;;;22.80;80.50;23.60;96274.00;;;;5004121;28;20699;-81
2022/06/29 03:21:04;;;;;;;5.17;4.70;;;22.80;80.40;23.60;96282.00;;;;5026830;28;20198;-81
2022/06/29 03:23:32;;;;;;;4.37;4.03;;;22.80;80.40;23.60;96300.00;;;;5019727;28;20231;-82
2022/06/29 03:25:59;;;;;;;5.43;4.73;;;22.90;80.50;23.60;96310.00;;;;5012594;28;20218;-81
2022/06/29 03:28:26;;;;;;;5.17;4.77;;;22.90;80.40;23.60;96296.00;;;;5013756;28;20253;-82
2022/06/29 03:30:53;;;;;;;5.27;4.77;;;22.90;80.50;23.60;96288.00;;;;5013908;28;20272;-81
2022/06/29 03:33:21;;;;;;;4.93;4.57;;;22.90;80.40;23.60;96297.00;;;;5012346;28;20260;-82
2022/06/29 03:35:49;;;;;;;5.33;4.80;;;22.90;80.40;23.70;96292.00;;;;5025443;28;20253;-82
2022/06/29 03:38:17;;;;;;;5.03;4.60;;;22.80;80.40;23.70;96285.00;;;;5007161;28;20294;-83
2022/06/29 03:40:44;;;;;;;5.70;5.20;;;22.90;80.60;23.70;96289.00;;;;5009913;28;20244;-82
2022/06/29 03:43:12;;;;;;;5.57;5.07;;;22.90;80.60;23.70;96289.00;;;;5016508;28;20245;-80
2022/06/29 03:45:39;;;;;;;5.80;5.30;;;22.90;80.70;23.70;96283.00;;;;5024221;28;20215;-80
2022/06/29 03:48:07;;;;;;;5.50;5.10;;;23.00;80.70;23.70;96276.00;;;;5015842;28;20223;-81
2022/06/29 03:50:34;;;;;;;5.97;5.00;;;23.00;80.70;23.70;96277.00;;;;5015761;28;20695;-82
2022/06/29 03:53:01;;;;;;;5.93;5.43;;;23.00;80.70;23.80;96280.00;;;;5020146;28;20684;-80
2022/06/29 03:55:30;;;;;;;5.93;5.47;;;23.00;80.50;23.80;96273.00;;;;5027265;28;20229;-81
2022/06/29 03:57:57;;;;;;;5.77;5.27;;;23.00;80.40;23.80;96285.00;;;;5020198;28;20250;-80
2022/06/29 04:00:24;;;;;;;8.40;6.40;;;23.00;80.50;23.80;96297.00;;;;5008404;28;20264;-82
2022/06/29 04:02:51;;;;;;;5.57;5.17;;;23.00;80.40;23.80;96301.00;;;;5009942;28;20200;-81
2022/06/29 04:05:19;;;;;;;6.03;5.37;;;23.10;81.20;23.80;96292.00;;;;5023030;28;20220;-82
2022/06/29 04:07:46;;;;;;;5.37;4.93;;;23.10;80.50;23.80;96296.00;;;;5028813;28;20222;-80
2022/06/29 04:10:13;;;;;;;6.13;5.57;;;23.10;80.50;23.80;96302.00;;;;5015225;28;20205;-83
2022/06/29 04:12:41;;;;;;;5.67;5.27;;;23.10;80.50;23.80;96298.00;;;;5015404;28;20240;-81
2022/06/29 04:15:10;;;;;;;6.40;5.80;;;23.10;80.50;23.80;96288.00;;;;5023082;28;20270;-80
2022/06/29 04:17:37;;;;;;;7.07;6.27;;;23.10;80.40;23.90;96285.00;;;;5018609;28;20614;-82
2022/06/29 04:20:06;;;;;;;7.83;7.00;;;23.10;80.30;23.90;96280.00;;;;5016021;28;20229;-81
2022/06/29 04:22:33;;;;;;;8.33;7.53;;;23.10;80.20;23.90;96282.00;;;;5001957;28;20230;-80
2022/06/29 04:25:01;;;;;;;9.47;7.40;;;23.10;80.10;23.80;96284.00;;;;5032710;28;20214;-80
2022/06/29 04:27:28;;;;;;;8.30;7.33;;;23.10;80.10;23.80;96289.00;;;;5014612;28;20648;-81
2022/06/29 04:29:56;;;;;;;6.80;6.20;;;23.10;80.10;23.80;96275.00;;;;5002269;28;20229;-80
2022/06/29 04:32:24;;;;;;;7.13;6.50;;;23.10;80.20;23.80;96278.00;;;;4996016;28;20230;-80
2022/06/29 04:34:51;;;;;;;5.90;5.40;;;23.10;80.10;23.80;96285.00;;;;5009563;28;20226;-79
2022/06/29 04:37:18;;;;;;;5.77;5.27;;;23.10;80.00;23.80;96288.00;;;;5019546;28;20298;-83
2022/06/29 04:39:45;;;;;;;6.13;5.63;;;23.10;80.10;23.80;96295.00;;;;5023660;28;20233;-78
2022/06/29 04:42:12;;;;;;;6.30;5.80;;;23.10;80.00;23.80;96301.00;;;;5021730;28;20190;-79
2022/06/29 04:44:39;;;;;;;6.23;5.70;;;23.10;80.10;23.80;96295.00;;;;5023223;28;20248;-79
2022/06/29 04:47:09;;;;;;;5.90;5.40;;;23.00;80.10;23.80;96294.00;;;;5015489;28;20235;-80
2022/06/29 04:49:36;;;;;;;6.27;5.77;;;23.10;80.30;23.80;96296.00;;;;5013265;28;20692;-79
2022/06/29 04:52:04;;;;;;;8.73;6.23;;;23.10;80.30;23.80;96292.00;;;;5005307;28;20231;-81
2022/06/29 04:54:31;;;;;;;6.33;5.83;;;23.10;80.40;23.90;96297.00;;;;5007101;28;20213;-79
2022/06/29 04:56:58;;;;;;;9.40;6.37;;;23.10;80.30;23.90;96294.00;;;;5008556;28;20237;-80
2022/06/29 04:59:25;;;;;;;6.20;5.70;;;23.10;80.40;23.90;96298.00;;;;5013430;28;20650;-79
2022/06/29 05:01:52;;;;;;;6.23;5.73;;;23.10;80.30;24.00;96304.00;;;;5008484;28;20232;-80
2022/06/29 05:04:21;;;;;;;5.33;4.80;;;23.20;80.30;24.00;96304.00;;;;5019322;28;20610;-81
2022/06/29 05:06:48;;;;;;;5.20;4.73;;;23.20;80.40;24.00;96296.00;;;;5013603;28;20297;-81
2022/06/29 05:09:15;;;;;;;5.50;5.00;;;23.20;80.20;24.00;96304.00;;;;5013582;28;20223;-80
2022/06/29 05:11:43;;;;;;;6.33;5.00;;;23.20;80.00;24.00;96302.00;;;;5013287;28;20237;-81
2022/06/29 05:14:10;;;;;;;5.60;5.20;;;23.30;80.60;24.00;96303.00;;;;5027215;28;20195;-79
2022/06/29 05:16:37;;;;;;;8.03;4.97;;;23.30;79.70;24.00;96295.00;;;;5010241;28;20219;-80
2022/06/29 05:19:05;;;;;;;6.13;5.30;;;23.30;79.70;24.00;96286.00;;;;4993077;28;20240;-81
2022/06/29 05:21:34;;;;;;;4.87;4.33;;;23.30;79.60;24.10;96281.00;;;;5003167;28;20247;-79
2022/06/29 05:24:01;;;;;;;5.40;5.00;;;23.30;79.70;24.10;96276.00;;;;5018474;28;20284;-80
2022/06/29 05:26:28;;;;;;;5.57;5.07;;;23.30;79.70;24.10;96259.00;;;;5017513;28;20804;-80
2022/06/29 05:28:56;;;;;;;4.87;4.47;;;23.40;79.80;24.20;96258.00;;;;5007140;28;20736;-79
2022/06/29 05:31:23;;;;;;;5.00;4.60;;;23.40;79.80;24.20;96257.00;;;;5007497;28;20282;-82
2022/06/29 05:33:50;;;;;;;5.23;4.73;;;23.40;79.80;24.30;96250.00;;;;5006231;28;20201;-79
2022/06/29 05:36:17;;;;;;;4.37;3.97;;;23.40;79.60;24.30;96255.00;;;;5017003;28;20743;-80
2022/06/29 05:38:46;;;;;;;5.00;4.60;;;23.50;79.70;24.40;96256.00;;;;5007024;28;20261;-79
2022/06/29 05:41:15;;;;;;;5.50;4.30;;;23.50;79.60;24.40;96253.00;;;;5016407;28;20287;-79
2022/06/29 05:43:43;;;;;;;5.33;4.90;;;23.50;79.60;24.50;96254.00;;;;5007239;28;20213;-79
2022/06/29 05:46:11;;;;;;;5.47;4.97;;;23.60;79.60;24.50;96261.00;;;;5024474;28;20262;-85
2022/06/29 05:48:38;;;;;;;5.83;5.23;;;23.60;79.60;24.50;96260.00;;;;5017160;28;20283;-80
2022/06/29 05:51:05;;;;;;;5.87;5.30;;;23.60;79.50;24.60;96260.00;;;;5017724;28;20234;-80
2022/06/29 05:53:32;;;;;;;6.67;5.67;;;23.70;79.50;24.60;96250.00;;;;5006056;28;20201;-79
2022/06/29 05:56:00;;;;;;;5.70;5.20;;;23.70;79.20;24.60;96250.00;;;;5017877;28;20241;-80
2022/06/29 05:58:27;;;;;;;6.57;5.97;;;23.70;79.20;24.70;96252.00;;;;5023933;28;20720;-81
2022/06/29 06:00:55;;;;;;;6.67;6.03;;;23.80;79.30;24.70;96258.00;;;;5001024;28;20211;-79
2022/06/29 06:03:22;;;;;;;6.13;5.53;;;23.80;79.10;24.80;96264.00;;;;5005738;28;20742;-80
2022/06/29 06:05:49;;;;;;;6.47;5.80;;;23.80;79.20;24.80;96253.00;;;;5018321;28;20257;-81
2022/06/29 06:08:17;;;;;;;5.83;5.17;;;23.90;79.20;24.90;96254.00;;;;5017877;28;20252;-80
2022/06/29 06:10:44;;;;;;;5.07;4.50;;;23.90;79.10;25.00;96252.00;;;;5012375;28;20243;-79
2022/06/29 06:13:13;;;;;;;5.47;4.97;;;24.00;79.20;25.00;96258.00;;;;5010945;28;20221;-80
2022/06/29 06:15:40;;;;;;;5.83;5.33;;;24.00;79.00;25.10;96264.00;;;;5010508;28;20291;-79
2022/06/29 06:18:07;;;;;;;5.13;4.70;;;24.10;78.70;25.10;96262.00;;;;5018902;28;20238;-79
2022/06/29 06:20:34;;;;;;;5.13;4.73;;;24.10;78.70;25.10;96256.00;;;;5009875;28;20213;-79
2022/06/29 06:23:01;;;;;;;5.10;4.60;;;24.10;78.50;25.20;96264.00;;;;5020227;28;20263;-81
2022/06/29 06:25:29;;;;;;;4.80;4.50;;;24.20;78.30;25.20;96275.00;;;;5012771;28;20300;-79
2022/06/29 06:27:56;;;;;;;5.67;5.23;;;24.20;78.10;25.20;96276.00;;;;5014934;28;20287;-79
2022/06/29 06:30:24;;;;;;;5.00;4.63;;;24.30;78.00;25.30;96287.00;;;;5023155;28;20702;-83
2022/06/29 06:32:51;;;;;;;4.87;4.47;;;24.30;77.90;25.30;96305.00;;;;5017492;28;20193;-80
2022/06/29 06:35:19;;;;;;;4.43;4.03;;;24.30;77.90;25.30;96297.00;;;;5005268;28;20300;-80
2022/06/29 06:37:47;;;;;;;4.20;3.90;;;24.30;77.90;25.30;96300.00;;;;5000961;28;20231;-82
2022/06/29 06:43:00;;;;;;;4.60;4.20;;;24.40;77.70;25.40;96308.00;;;;5002954;28;20224;-81
2022/06/29 06:45:28;;;;;;;4.40;4.10;;;24.40;77.40;25.40;96313.00;;;;5015889;28;20219;-84
2022/06/29 06:47:55;;;;;;;5.73;4.80;;;24.40;77.00;25.40;96321.00;;;;4999234;28;20566;-81
2022/06/29 06:50:23;;;;;;;4.60;4.20;;;24.40;76.90;25.40;96327.00;;;;5002478;28;20248;-80
2022/06/29 06:52:50;;;;;;;4.83;4.43;;;24.50;76.80;25.30;96333.00;;;;4993684;28;20743;-81
2022/06/29 06:55:17;;;;;;;4.80;4.40;;;24.40;76.70;25.30;96335.00;;;;5008062;28;20265;-81
2022/06/29 06:57:44;;;;;;;6.00;4.27;;;24.40;76.50;25.30;96335.00;;;;5013936;28;20205;-79
2022/06/29 07:00:13;;;;;;;5.17;4.30;;;24.40;76.40;25.30;96343.00;;;;5014612;28;20211;-80
2022/06/29 07:02:42;;;;;;;4.67;4.30;;;24.40;76.40;25.30;96345.00;;;;5011282;28;20202;-79
2022/06/29 07:05:09;;;;;;;5.17;4.77;;;24.40;76.40;25.30;96351.00;;;;5010445;28;20221;-79
2022/06/29 07:07:37;;;;;;;4.33;4.03;;;24.40;76.20;25.30;96347.00;;;;5009735;28;20571;-79
2022/06/29 07:10:05;;;;;;;4.97;4.47;;;24.40;76.00;25.30;96346.00;;;;5013089;28;20261;-79
2022/06/29 07:12:33;;;;;;;5.00;4.60;;;24.40;75.90;25.20;96345.00;;;;5014711;28;20698;-79
2022/06/29 07:15:00;;;;;;;4.30;4.00;;;24.40;75.90;25.20;96346.00;;;;5014481;28;20256;-79
2022/06/29 07:17:27;;;;;;;4.57;4.17;;;24.40;76.00;25.20;96357.00;;;;5014575;28;20259;-78
2022/06/29 07:19:56;;;;;;;4.63;4.20;;;24.40;76.00;25.20;96355.00;;;;5014633;28;20690;-80
2022/06/29 07:22:23;;;;;;;4.83;4.27;;;24.40;76.10;25.20;96359.00;;;;5014370;28;20383;-78
2022/06/29 07:24:50;;;;;;;3.77;3.47;;;24.40;76.20;25.20;96360.00;;;;5014269;28;20283;-80
2022/06/29 07:27:17;;;;;;;3.83;3.30;;;24.40;76.10;25.20;96361.00;;;;5014620;28;20198;-79
2022/06/29 07:29:44;;;;;;;3.60;3.30;;;24.40;76.00;25.20;96359.00;;;;5014610;28;20226;-78
2022/06/29 07:32:12;;;;;;;3.60;3.30;;;24.40;75.80;25.10;96352.00;;;;5014513;28;20248;-79
2022/06/29 07:34:39;;;;;;;4.33;3.20;;;24.30;75.50;25.10;96354.00;;;;5014184;28;20257;-79
2022/06/29 07:37:07;;;;;;;2.90;2.70;;;24.30;75.60;25.10;96352.00;;;;5014005;28;20929;-79
2022/06/29 07:39:34;;;;;;;3.17;2.87;;;24.30;75.90;25.10;96351.00;;;;5014467;28;20204;-80
2022/06/29 07:42:01;;;;;;;4.17;2.97;;;24.30;76.10;25.10;96347.00;;;;5014188;28;20243;-79
2022/06/29 07:44:29;;;;;;;5.87;3.33;;;24.30;76.10;25.00;96338.00;;;;5001680;28;20245;-80
2022/06/29 07:46:56;;;;;;;4.00;2.70;;;24.30;76.10;25.00;96341.00;;;;4995087;28;20227;-80
2022/06/29 07:49:23;;;;;;;2.43;2.33;;;24.30;76.20;25.00;96341.00;;;;4995202;28;20607;-83
2022/06/29 07:51:52;;;;;;;3.77;3.20;;;24.20;76.20;25.10;96333.00;;;;4995007;28;20276;-83
2022/06/29 07:54:21;;;;;;;2.50;2.33;;;24.20;76.30;25.10;96336.00;;;;4994431;28;20686;-81
2022/06/29 07:56:48;;;;;;;4.17;2.93;;;24.20;76.30;25.10;96337.00;;;;4995058;28;20291;-80
2022/06/29 07:59:15;;;;;;;2.90;2.70;;;24.20;76.40;25.10;96332.00;;;;4994237;28;20289;-83
2022/06/29 08:01:42;;;;;;;2.97;2.77;;;24.20;76.40;25.10;96341.00;;;;4994785;28;20234;-81
2022/06/29 08:04:09;;;;;;;3.20;2.90;;;24.20;76.50;25.10;96337.00;;;;5013887;28;20834;-86
2022/06/29 08:06:36;;;;;;;3.60;3.30;;;24.20;76.30;25.10;96338.00;;;;5014156;28;20217;-80
2022/06/29 08:09:05;;;;;;;2.93;2.73;;;24.30;76.20;25.10;96339.00;;;;5013633;28;20268;-81
2022/06/29 08:11:34;;;;;;;3.77;3.37;;;24.30;76.30;25.20;96334.00;;;;5001260;28;20221;-81
2022/06/29 08:14:01;;;;;;;2.83;2.63;;;24.30;75.80;25.20;96323.00;;;;5002992;28;20267;-83
2022/06/29 08:16:29;;;;;;;2.87;2.67;;;24.30;75.90;25.30;96325.00;;;;5013512;28;20217;-81
2022/06/29 08:18:56;;;;;;;2.97;2.77;;;24.30;76.20;25.30;96317.00;;;;5013661;28;20202;-80
2022/06/29 08:21:23;;;;;;;2.40;2.23;;;24.40;76.40;25.50;96319.00;;;;5004764;28;20241;-81
2022/06/29 08:23:51;;;;;;;2.73;2.53;;;24.40;76.60;25.60;96325.00;;;;4993723;28;20195;-80
2022/06/29 08:26:18;;;;;;;3.10;2.90;;;24.50;76.70;25.70;96320.00;;;;4994101;28;20261;-81
2022/06/29 08:28:46;;;;;;;3.00;2.73;;;24.60;76.60;25.90;96321.00;;;;4994195;28;20230;-80
2022/06/29 08:31:13;;;;;;;3.60;3.23;;;24.70;76.60;26.10;96322.00;;;;4994183;28;20202;-80
2022/06/29 08:33:42;;;;;;;3.63;2.90;;;24.80;76.60;26.20;96333.00;;;;4993848;28;20203;-80
2022/06/29 08:36:10;;;;;;;4.07;3.27;;;24.90;76.40;26.30;96334.00;;;;4993250;28;20261;-80
2022/06/29 08:38:37;;;;;;;4.17;3.30;;;25.10;75.70;26.40;96333.00;;;;5000722;28;20289;-80
2022/06/29 08:41:04;;;;;;;3.07;2.87;;;25.10;75.40;26.50;96336.00;;;;5004574;28;20304;-81
2022/06/29 08:43:32;;;;;;;2.77;2.57;;;25.20;75.30;26.60;96339.00;;;;4998485;28;20237;-80
2022/06/29 08:46:01;;;;;;;3.93;3.57;;;25.30;75.10;26.70;96341.00;;;;5014032;28;20642;-82
2022/06/29 08:48:30;;;;;;;3.73;2.93;;;25.40;74.20;26.70;96346.00;;;;5013942;28;20233;-82
2022/06/29 08:50:57;;;;;;;2.80;2.60;;;25.50;74.10;26.80;96337.00;;;;5013410;28;20703;-81
2022/06/29 08:53:24;;;;;;;2.80;2.60;;;25.60;74.40;26.80;96336.00;;;;5012805;28;20221;-82
2022/06/29 08:55:55;;;;;;;2.70;2.50;;;25.60;74.00;26.80;96334.00;;;;5012993;28;20218;-80
2022/06/29 08:58:24;;;;;;;2.73;2.53;;;25.60;73.70;26.80;96338.00;;;;5013731;28;20192;-80
2022/06/29 09:00:52;;;;;;;2.60;2.40;;;25.70;73.60;26.90;96330.00;;;;5012954;28;20676;-80
2022/06/29 09:03:23;;;;;;;3.00;2.80;;;25.70;73.80;26.90;96339.00;;;;5013737;28;20202;-81
2022/06/29 09:05:54;;;;;;;3.10;2.90;;;25.70;73.90;27.00;96334.00;;;;5013587;28;20332;-84
2022/06/29 09:08:22;;;;;;;2.87;2.63;;;25.80;73.60;27.20;96334.00;;;;5014009;28;20197;-81
2022/06/29 09:10:50;;;;;;;4.20;3.13;;;25.90;73.80;27.30;96337.00;;;;5006278;28;20284;-82
2022/06/29 09:13:21;;;;;;;3.63;3.33;;;26.00;73.80;27.40;96338.00;;;;4996495;28;20205;-81
2022/06/29 09:15:57;;;;;;;4.73;3.20;;;26.10;72.80;27.50;96344.00;;;;5012810;28;20229;-80
2022/06/29 09:18:30;;;;;;;3.10;2.83;;;26.10;72.40;27.50;96333.00;;;;5013281;28;20251;-81
2022/06/29 09:21:00;;;;;;;3.70;3.40;;;26.20;72.10;27.60;96328.00;;;;5009887;28;20202;-80
2022/06/29 09:23:30;;;;;;;3.47;3.20;;;26.30;71.80;27.60;96339.00;;;;5013303;28;20197;-80
2022/06/29 09:25:58;;;;;;;4.93;3.40;;;26.40;71.70;27.70;96337.00;;;;5012683;28;20218;-82
2022/06/29 09:28:27;;;;;;;3.33;3.03;;;26.50;72.00;27.90;96328.00;;;;5013271;28;20370;-81
2022/06/29 09:30:58;;;;;;;3.70;3.40;;;26.50;72.10;28.00;96324.00;;;;5012472;28;20228;-80
2022/06/29 09:33:28;;;;;;;3.40;3.10;;;26.60;71.60;28.20;96332.00;;;;5012268;28;20296;-82
2022/06/29 09:36:09;;;;;;;3.20;3.00;;;26.70;71.70;28.30;96331.00;;;;5009679;28;20229;-83
2022/06/29 09:38:36;;;;;;;2.45;2.35;;;26.80;70.50;28.40;96321.00;;;;5013288;28;20193;-81
2022/06/29 09:41:09;;;;;;;3.10;2.80;;;26.90;70.70;28.50;96326.00;;;;5008187;28;20647;-80
2022/06/29 09:43:39;;;;;;;2.57;2.37;;;27.00;70.00;28.50;96330.00;;;;5013301;28;20264;-80
2022/06/29 09:46:09;;;;;;;2.38;2.17;;;27.10;69.90;28.50;96335.00;;;;5013952;28;20370;-81
2022/06/29 09:48:40;;;;;;;3.88;2.80;;;27.10;69.70;28.60;96330.00;;;;5013658;28;20206;-80
2022/06/29 09:53:59;;;;;;;2.15;2.05;;;27.30;69.80;28.80;96347.00;;;;5012131;28;20317;-80
2022/06/29 09:56:30;;;;;;;2.38;2.13;;;27.40;69.60;28.80;96346.00;;;;5010917;28;20299;-79
2022/06/29 09:59:00;;;;;;;2.55;2.20;;;27.40;68.50;28.80;96345.00;;;;5012332;28;20201;-80
2022/06/29 10:04:16;;;;;;;2.00;1.90;;;27.50;67.70;28.80;96335.00;;;;5012009;28;20201;-80
2022/06/29 10:06:45;;;;;;;2.10;1.90;;;27.50;67.30;28.80;96334.00;;;;5012338;28;20245;-81
2022/06/29 10:09:12;;;;;;;2.13;2.03;;;27.60;67.20;28.80;96341.00;;;;5013352;28;20660;-80
2022/06/29 10:15:03;;;;;;;3.25;2.00;;;27.60;66.70;28.90;96327.00;;;;5011928;28;20329;-80
2022/06/29 10:17:47;;;;;;;2.05;1.95;;;27.60;67.20;29.00;96325.00;;;;5011939;28;20285;-82
2022/06/29 10:20:35;;;;;;;2.00;1.90;;;27.70;65.90;29.10;96330.00;;;;5012647;28;20218;-79
2022/06/29 10:23:03;;;;;;;2.63;2.35;;;27.80;66.60;29.20;96326.00;;;;5012013;28;20245;-80
2022/06/29 10:25:30;;;;;;;2.30;2.20;;;27.90;65.90;29.40;96320.00;;;;5011327;28;20263;-84
2022/06/29 10:28:18;;;;;;;2.30;2.20;;;28.10;66.20;29.50;96318.00;;;;5007545;28;20242;-80
2022/06/29 10:30:46;;;;;;;2.33;2.08;;;28.20;64.80;29.60;96322.00;;;;5002346;28;20660;-80
2022/06/29 10:33:36;;;;;;;2.22;2.03;;;28.30;66.40;29.80;96319.00;;;;5011919;28;20230;-80
2022/06/29 10:36:08;;;;;;;2.00;1.73;;;28.50;64.40;30.00;96317.00;;;;5010968;28;20254;-80
2022/06/29 10:39:11;;;;;;;2.40;2.30;;;28.70;65.60;30.10;96306.00;;;;5019635;28;20201;-81
2022/06/29 10:44:59;;;;;;;1.92;1.83;;;29.00;63.20;30.30;96305.00;;;;5001781;28;20730;-80
2022/06/29 10:47:26;;;;;;;2.67;2.30;;;29.10;62.70;30.30;96310.00;;;;4990925;28;20209;-79
2022/06/29 10:50:25;;;;;;;2.25;2.10;;;29.20;64.40;30.40;96306.00;;;;4996514;28;20222;-81
2022/06/29 10:52:56;;;;;;;2.13;2.03;;;29.20;62.70;30.50;96309.00;;;;4996649;28;20630;-80
2022/06/29 10:55:25;;;;;;;2.05;1.95;;;29.30;63.90;30.60;96305.00;;;;4997489;28;20224;-79
2022/06/29 10:57:53;;;;;;;2.25;2.13;;;29.40;63.30;30.70;96306.00;;;;4997215;28;20218;-80
2022/06/29 11:00:25;;;;;;;2.33;2.13;;;29.50;64.50;30.80;96309.00;;;;4996184;28;20210;-79
2022/06/29 11:02:53;;;;;;;2.25;2.15;;;29.60;63.00;30.90;96310.00;;;;4995812;28;20238;-81
2022/06/29 11:05:20;;;;;;;1.85;1.75;;;29.60;63.10;30.90;96308.00;;;;4996306;28;20258;-82
2022/06/29 11:13:30;;;;;;;2.13;2.03;;;29.80;62.00;30.90;96298.00;;;;4999236;28;20616;-79
2022/06/29 11:16:00;;;;;;;2.70;1.83;;;29.80;62.50;31.00;96304.00;;;;5000432;28;20241;-79
2022/06/29 11:18:29;;;;;;;2.53;1.95;;;29.80;62.80;31.00;96289.00;;;;5015496;28;20838;-80
2022/06/29 11:21:02;;;;;;;2.30;2.13;;;29.80;61.90;31.00;96287.00;;;;5015191;28;20241;-81
2022/06/29 11:23:31;;;;;;;2.42;1.92;;;29.80;62.00;31.00;96284.00;;;;5015266;28;20209;-80
2022/06/29 11:26:01;;;;;;;2.00;1.90;;;29.90;61.60;31.00;96284.00;;;;5014613;28;20221;-81